Britton, South Dakota
Current Conditions -  °F | °C
As of 6:35 PM on Sunday 21 Dec 2014 (Local Time) from KGWR Reporting Station
Overcast Overcast  
Wind Chill: 24°   Ceiling: 400
Heat Index: 34°   Visibility: 9mi
Dew Point: 34°   Wind: 14mph
Humidity: 100%   Direction: 130°SE
Pressure: 29.54"   Gusts: NA
Location:  45.79°N, 97.75°W
Report Text: KGWR 220035Z AUTO 13012KT 9SM OVC004 01/01 A2954 RMK A01 P000
Loading
Personal Weather Stations






























Interactive Weather Map New forecast layout! Learn more

10-Day Weather Forecast

Advertisements
Track Severe Weather on mobile